createdAt,value
2023-03-26T00:02:03.738Z,3.90
2023-03-26T00:05:06.951Z,5.95
2023-03-26T00:08:11.088Z,4.40
2023-03-26T00:11:16.040Z,4.17
2023-03-26T00:14:21.376Z,5.68
2023-03-26T00:17:26.302Z,4.40
2023-03-26T00:20:38.849Z,4.10
2023-03-26T00:23:43.771Z,5.35
2023-03-26T00:26:55.905Z,3.97
2023-03-26T00:30:00.499Z,4.25
2023-03-26T00:33:03.149Z,5.78
2023-03-26T00:36:10.181Z,5.35
2023-03-26T00:39:14.298Z,6.55
2023-03-26T00:42:18.541Z,5.77
2023-03-26T00:45:23.981Z,5.55
2023-03-26T00:48:44.125Z,5.57
2023-03-26T00:51:48.126Z,5.13
2023-03-26T00:54:53.750Z,6.45
2023-03-26T00:57:58.180Z,5.57
2023-03-26T01:01:08.705Z,4.65
2023-03-26T01:04:31.919Z,3.42
2023-03-26T01:07:37.130Z,4.00
2023-03-26T01:10:40.850Z,6.35
2023-03-26T01:13:52.246Z,3.70
2023-03-26T01:16:59.615Z,4.00
2023-03-26T01:20:29.335Z,3.33
2023-03-26T01:23:41.955Z,3.80
2023-03-26T01:26:56.562Z,4.45
2023-03-26T01:30:21.833Z,4.10
2023-03-26T01:33:40.416Z,5.68
2023-03-26T01:36:58.533Z,4.63
2023-03-26T01:40:23.874Z,4.68
2023-03-26T01:43:46.875Z,5.10
2023-03-26T01:46:55.625Z,6.37
2023-03-26T01:49:59.929Z,5.88
2023-03-26T01:53:03.012Z,3.80
2023-03-26T01:56:21.602Z,4.13
2023-03-26T01:59:55.051Z,5.68
2023-03-26T02:03:20.364Z,6.35
2023-03-26T02:06:46.157Z,4.35
2023-03-26T02:09:53.871Z,4.65
2023-03-26T02:13:06.886Z,5.25
2023-03-26T02:16:18.811Z,5.57
2023-03-26T02:19:28.044Z,7.20
2023-03-26T02:22:32.708Z,5.03
2023-03-26T02:25:35.793Z,4.72
2023-03-26T02:28:38.224Z,5.67
2023-03-26T02:31:40.052Z,5.00
2023-03-26T02:34:43.145Z,5.13
2023-03-26T02:37:46.882Z,4.22
2023-03-26T02:40:51.565Z,4.55
2023-03-26T02:43:54.671Z,6.93
2023-03-26T02:47:00.090Z,4.47
2023-03-26T02:50:22.050Z,4.47
2023-03-26T02:53:43.992Z,4.70
2023-03-26T02:57:13.022Z,6.28
2023-03-26T03:00:34.834Z,6.10
2023-03-26T03:03:56.642Z,4.68
2023-03-26T03:07:18.529Z,5.95
2023-03-26T03:10:21.946Z,3.95
2023-03-26T03:13:46.708Z,7.20
2023-03-26T03:16:53.838Z,5.72
2023-03-26T03:19:57.154Z,6.35
2023-03-26T03:22:58.851Z,6.63
2023-03-26T03:26:02.538Z,5.03
2023-03-26T03:29:07.847Z,7.28
2023-03-26T03:32:10.253Z,5.23
2023-03-26T03:35:17.924Z,5.35
2023-03-26T03:38:27.905Z,6.38
2023-03-26T03:41:32.151Z,8.80
2023-03-26T03:44:38.500Z,5.53
2023-03-26T03:47:50.057Z,7.18
2023-03-26T03:50:59.254Z,9.13
2023-03-26T03:54:06.445Z,6.00
2023-03-26T03:57:29.299Z,5.78
2023-03-26T04:00:46.221Z,7.00
2023-03-26T04:04:19.006Z,3.90
2023-03-26T04:07:34.466Z,6.65
2023-03-26T04:10:46.721Z,5.47
2023-03-26T04:14:00.731Z,9.23
2023-03-26T04:17:31.596Z,6.60
2023-03-26T04:20:34.189Z,6.35
2023-03-26T04:23:40.211Z,5.53
2023-03-26T04:26:58.147Z,7.47
2023-03-26T04:30:08.472Z,6.55
2023-03-26T04:33:15.596Z,6.45
2023-03-26T04:36:23.600Z,7.63
2023-03-26T04:39:30.127Z,8.18
2023-03-26T04:43:00.002Z,7.50
2023-03-26T04:46:32.963Z,6.05
2023-03-26T04:49:47.555Z,6.22
2023-03-26T04:52:52.135Z,8.00
2023-03-26T04:56:33.082Z,8.75
2023-03-26T05:00:10.985Z,6.20
2023-03-26T05:03:16.735Z,5.55
2023-03-26T05:06:22.882Z,5.57
2023-03-26T05:09:31.104Z,7.60
2023-03-26T05:12:49.375Z,6.90
2023-03-26T05:16:03.344Z,5.72
2023-03-26T05:19:39.969Z,6.20
2023-03-26T05:22:44.432Z,5.22
2023-03-26T05:26:04.221Z,7.38
2023-03-26T05:29:10.568Z,8.00
2023-03-26T05:32:22.404Z,5.87
2023-03-26T05:35:28.558Z,6.47
2023-03-26T05:38:34.581Z,6.63
2023-03-26T05:41:42.091Z,4.60
2023-03-26T05:44:45.617Z,7.85
2023-03-26T05:47:56.739Z,7.90
2023-03-26T05:51:03.077Z,6.85
2023-03-26T05:54:12.577Z,7.60
2023-03-26T05:57:36.169Z,7.00
2023-03-26T06:01:17.236Z,7.97
2023-03-26T06:04:45.844Z,9.90
2023-03-26T06:08:07.298Z,6.40
2023-03-26T06:11:15.983Z,6.80
2023-03-26T06:14:30.908Z,5.37
2023-03-26T06:17:57.930Z,8.10
2023-03-26T06:21:13.434Z,6.88
2023-03-26T06:24:24.795Z,7.80
2023-03-26T06:27:40.599Z,8.95
2023-03-26T06:31:27.765Z,7.03
2023-03-26T06:34:48.082Z,6.60
2023-03-26T06:37:50.990Z,7.17
2023-03-26T06:40:54.796Z,6.05
2023-03-26T06:44:02.609Z,9.65
2023-03-26T06:47:23.962Z,7.83
2023-03-26T06:50:49.574Z,9.27
2023-03-26T06:54:28.178Z,9.93
2023-03-26T06:57:58.460Z,7.53
2023-03-26T07:01:27.290Z,6.95
2023-03-26T07:05:01.120Z,9.52
2023-03-26T07:08:26.485Z,8.23
2023-03-26T07:11:49.254Z,9.33
2023-03-26T07:15:32.932Z,9.70
2023-03-26T07:19:18.694Z,9.40
2023-03-26T07:22:34.176Z,6.60
2023-03-26T07:25:51.443Z,8.02
2023-03-26T07:29:18.652Z,9.32
2023-03-26T07:33:03.818Z,9.23
2023-03-26T07:36:37.479Z,6.60
2023-03-26T07:40:42.016Z,5.95
2023-03-26T07:44:34.085Z,8.65
2023-03-26T07:47:58.266Z,6.80
2023-03-26T07:51:18.781Z,10.07
2023-03-26T07:54:42.523Z,8.25
2023-03-26T07:58:17.836Z,7.23
2023-03-26T08:02:18.078Z,9.50
2023-03-26T08:05:35.526Z,10.27
2023-03-26T08:09:24.730Z,9.35
2023-03-26T08:13:09.687Z,8.63
2023-03-26T08:16:23.733Z,11.98
2023-03-26T08:20:09.698Z,9.88
2023-03-26T08:23:19.342Z,13.10
2023-03-26T08:26:38.785Z,15.07
2023-03-26T08:30:12.894Z,17.00
2023-03-26T08:33:22.287Z,10.30
2023-03-26T08:36:29.484Z,16.52
2023-03-26T08:39:34.421Z,19.63
2023-03-26T08:49:38.478Z,18.33
2023-03-26T08:52:47.393Z,17.88
2023-03-26T08:56:15.593Z,10.77
2023-03-26T09:00:33.838Z,11.13
2023-03-26T09:04:11.302Z,11.93
2023-03-26T09:08:08.083Z,13.80
2023-03-26T09:11:30.217Z,17.38
2023-03-26T09:14:52.701Z,11.50
2023-03-26T09:18:14.126Z,9.98
2023-03-26T09:21:38.644Z,11.63
2023-03-26T09:24:41.844Z,12.73
2023-03-26T09:28:06.826Z,14.70
2023-03-26T09:31:52.748Z,12.73
2023-03-26T09:35:13.655Z,11.45
2023-03-26T09:38:42.702Z,14.90
2023-03-26T09:42:27.273Z,19.50
2023-03-26T09:45:47.276Z,18.48
2023-03-26T09:49:12.806Z,13.45
2023-03-26T09:52:46.399Z,10.02
2023-03-26T09:56:44.532Z,19.20
2023-03-26T10:00:40.846Z,22.33
2023-03-26T10:04:11.157Z,13.25
2023-03-26T10:07:34.543Z,12.93
2023-03-26T10:11:05.494Z,36.15
2023-03-26T10:14:28.411Z,14.48
2023-03-26T10:18:27.028Z,14.70
2023-03-26T10:21:46.614Z,13.32
2023-03-26T10:25:47.268Z,39.30
2023-03-26T10:29:09.673Z,14.88
2023-03-26T10:32:40.583Z,7.97
2023-03-26T10:36:12.108Z,9.77
2023-03-26T10:39:36.886Z,8.95
2023-03-26T10:43:12.802Z,8.57
2023-03-26T10:47:04.525Z,8.18
2023-03-26T10:50:29.639Z,8.50
2023-03-26T10:53:48.253Z,5.40
2023-03-26T10:56:56.412Z,7.05
2023-03-26T11:00:13.507Z,7.70
2023-03-26T11:03:39.493Z,7.38
2023-03-26T11:06:51.400Z,7.75
2023-03-26T11:10:19.198Z,5.50
2023-03-26T11:13:46.903Z,7.15
2023-03-26T11:17:39.805Z,5.30
2023-03-26T11:21:19.403Z,5.22
2023-03-26T11:24:47.957Z,5.75
2023-03-26T11:27:55.159Z,4.53
2023-03-26T11:31:19.394Z,5.55
2023-03-26T11:34:32.760Z,4.45
2023-03-26T11:37:52.242Z,5.75
2023-03-26T11:40:59.127Z,7.95
2023-03-26T11:44:37.742Z,4.60
2023-03-26T11:47:49.411Z,5.75
2023-03-26T11:51:04.556Z,4.83
2023-03-26T11:54:10.849Z,4.82
2023-03-26T11:57:29.568Z,4.47
2023-03-26T12:00:38.676Z,4.20
2023-03-26T12:03:51.698Z,4.55
2023-03-26T12:07:18.504Z,4.20
2023-03-26T12:10:41.317Z,4.47
2023-03-26T12:13:58.523Z,8.63
2023-03-26T12:17:08.466Z,3.87
2023-03-26T12:20:25.532Z,7.05
2023-03-26T12:24:12.647Z,6.97
2023-03-26T12:27:29.013Z,4.22
2023-03-26T12:30:40.673Z,1.02
2023-03-26T12:33:43.342Z,1.95
2023-03-26T12:37:05.605Z,4.07
2023-03-26T12:40:33.153Z,2.07
2023-03-26T12:44:56.035Z,4.40
2023-03-26T12:47:57.193Z,3.05
2023-03-26T12:50:59.246Z,5.07
2023-03-26T12:54:19.061Z,4.20
2023-03-26T12:57:34.585Z,3.30
2023-03-26T13:00:55.678Z,3.58
2023-03-26T13:04:25.340Z,5.60
2023-03-26T13:07:42.536Z,6.18
2023-03-26T13:11:03.965Z,6.95
2023-03-26T13:14:17.789Z,6.53
2023-03-26T13:17:45.958Z,5.32
2023-03-26T13:20:54.141Z,5.93
2023-03-26T13:24:28.111Z,4.53
2023-03-26T13:27:52.814Z,4.57
2023-03-26T13:31:17.517Z,5.18
2023-03-26T13:34:38.137Z,2.85
2023-03-26T13:38:12.793Z,5.60
2023-03-26T13:41:32.604Z,4.60
2023-03-26T13:44:50.065Z,4.78
2023-03-26T13:47:55.713Z,8.93
2023-03-26T13:51:15.393Z,7.82
2023-03-26T13:54:21.569Z,6.03
2023-03-26T13:57:33.769Z,5.60
2023-03-26T14:00:54.504Z,5.57
2023-03-26T14:04:22.645Z,5.70
2023-03-26T14:07:32.305Z,4.05
2023-03-26T14:11:04.304Z,4.70
2023-03-26T14:14:26.691Z,4.80
2023-03-26T14:17:38.530Z,5.45
2023-03-26T14:21:08.206Z,6.40
2023-03-26T14:24:54.092Z,4.78
2023-03-26T14:28:19.160Z,4.60
2023-03-26T14:31:42.625Z,4.93
2023-03-26T14:35:09.844Z,4.47
2023-03-26T14:38:47.029Z,7.70
2023-03-26T14:41:57.206Z,5.00
2023-03-26T14:45:23.756Z,4.53
2023-03-26T14:48:48.142Z,5.10
2023-03-26T14:52:10.286Z,4.88
2023-03-26T14:55:48.627Z,5.27
2023-03-26T14:59:17.294Z,5.05
2023-03-26T15:02:37.586Z,5.00
2023-03-26T15:06:19.694Z,5.07
2023-03-26T15:10:11.069Z,5.88
2023-03-26T15:13:32.270Z,5.88
2023-03-26T15:17:29.005Z,6.78
2023-03-26T15:20:52.236Z,6.38
2023-03-26T15:24:24.716Z,6.20
2023-03-26T15:28:08.297Z,7.18
2023-03-26T15:31:47.670Z,6.37
2023-03-26T15:34:54.716Z,6.93
2023-03-26T15:38:46.870Z,5.75
2023-03-26T15:42:03.977Z,6.23
2023-03-26T15:45:27.928Z,9.23
2023-03-26T15:48:42.491Z,6.20
2023-03-26T15:51:59.011Z,8.40
2023-03-26T15:55:16.126Z,7.82
2023-03-26T15:58:21.324Z,9.65
2023-03-26T16:02:03.852Z,7.47
2023-03-26T16:05:09.401Z,6.83
2023-03-26T16:09:00.550Z,10.15
2023-03-26T16:12:14.496Z,6.60
2023-03-26T16:15:32.040Z,4.03
2023-03-26T16:18:41.333Z,7.57
2023-03-26T16:22:04.539Z,4.40
2023-03-26T16:25:27.641Z,8.00
2023-03-26T16:29:02.287Z,5.27
2023-03-26T16:32:09.683Z,6.65
2023-03-26T16:35:17.116Z,5.93
2023-03-26T16:38:21.644Z,5.10
2023-03-26T16:41:28.765Z,5.47
2023-03-26T16:44:37.664Z,5.82
2023-03-26T16:47:58.003Z,6.72
2023-03-26T16:51:37.313Z,6.22
2023-03-26T16:55:01.416Z,4.97
2023-03-26T16:58:15.442Z,6.28
2023-03-26T17:01:35.382Z,7.87
2023-03-26T17:04:38.335Z,6.07
2023-03-26T17:08:02.909Z,5.00
2023-03-26T17:11:09.604Z,5.87
2023-03-26T17:14:28.486Z,5.43
2023-03-26T17:17:39.142Z,5.63
2023-03-26T17:21:03.718Z,5.47
2023-03-26T17:24:26.705Z,4.82
2023-03-26T17:28:12.478Z,4.95
2023-03-26T17:31:27.310Z,5.43
2023-03-26T17:34:38.456Z,3.03
2023-03-26T17:37:45.210Z,5.60
2023-03-26T17:40:58.880Z,3.85
2023-03-26T17:44:04.695Z,4.60
2023-03-26T17:47:16.608Z,4.68
2023-03-26T17:50:27.301Z,4.78
2023-03-26T17:53:34.570Z,8.77
2023-03-26T17:56:38.148Z,5.05
2023-03-26T17:59:43.791Z,4.15
2023-03-26T18:03:00.009Z,5.25
2023-03-26T18:06:18.077Z,3.50
2023-03-26T18:09:37.768Z,4.05
2023-03-26T18:12:40.762Z,5.35
2023-03-26T18:16:21.190Z,3.63
2023-03-26T18:19:23.807Z,4.90
2023-03-26T18:22:27.704Z,4.43
2023-03-26T18:25:33.751Z,4.68
2023-03-26T18:28:41.554Z,4.50
2023-03-26T18:31:44.015Z,5.88
2023-03-26T18:34:52.682Z,4.38
2023-03-26T18:37:59.981Z,4.57
2023-03-26T18:41:01.880Z,4.28
2023-03-26T18:44:06.501Z,4.57
2023-03-26T18:47:09.679Z,3.53
2023-03-26T18:50:17.868Z,4.70
2023-03-26T18:53:25.759Z,5.50
2023-03-26T18:56:29.153Z,5.65
2023-03-26T18:59:35.167Z,5.65
2023-03-26T19:02:40.092Z,4.15
2023-03-26T19:05:41.841Z,5.47
2023-03-26T19:08:46.262Z,3.70
2023-03-26T19:11:51.120Z,4.03
2023-03-26T19:15:09.860Z,3.25
2023-03-26T19:18:18.665Z,5.07
2023-03-26T19:21:23.289Z,4.13
2023-03-26T19:24:25.664Z,4.45
2023-03-26T19:27:27.648Z,4.35
2023-03-26T19:30:32.780Z,3.83
2023-03-26T19:33:37.278Z,3.75
2023-03-26T19:36:52.580Z,4.22
2023-03-26T19:40:00.350Z,3.97
2023-03-26T19:43:04.405Z,4.28
2023-03-26T19:46:06.432Z,4.55
2023-03-26T19:49:22.892Z,4.20
2023-03-26T19:52:26.063Z,4.57
2023-03-26T19:55:30.181Z,5.45
2023-03-26T19:58:31.857Z,4.38
2023-03-26T20:01:36.925Z,4.50
2023-03-26T20:04:38.971Z,4.63
2023-03-26T20:07:40.557Z,3.55
2023-03-26T20:10:43.227Z,3.57
2023-03-26T20:13:44.916Z,4.57
2023-03-26T20:16:48.589Z,5.07
2023-03-26T20:19:50.236Z,5.10
2023-03-26T20:22:53.925Z,5.38
2023-03-26T20:25:56.073Z,4.47
2023-03-26T20:28:58.923Z,5.28
2023-03-26T20:32:00.849Z,5.05
2023-03-26T20:35:02.466Z,5.90
2023-03-26T20:38:05.314Z,6.32
2023-03-26T20:41:12.685Z,5.73
2023-03-26T20:44:20.067Z,5.72
2023-03-26T20:47:21.685Z,5.25
2023-03-26T20:50:26.699Z,4.57
2023-03-26T20:53:30.436Z,4.90
2023-03-26T20:56:32.816Z,4.13
2023-03-26T20:59:34.625Z,4.28
2023-03-26T21:02:37.035Z,4.93
2023-03-26T21:05:40.864Z,4.45
2023-03-26T21:08:44.435Z,4.35
2023-03-26T21:12:08.084Z,4.43
2023-03-26T21:15:22.448Z,4.70
2023-03-26T21:18:28.908Z,4.30
2023-03-26T21:22:07.274Z,2.30
2023-03-26T21:25:15.353Z,2.58
2023-03-26T21:28:35.821Z,2.97
2023-03-26T21:31:43.657Z,3.58
2023-03-26T21:34:55.776Z,2.95
2023-03-26T21:38:01.522Z,3.25
2023-03-26T21:41:03.771Z,4.93
2023-03-26T21:44:05.755Z,2.33
2023-03-26T21:47:09.773Z,2.95
2023-03-26T21:50:14.633Z,2.92
2023-03-26T21:53:16.664Z,3.23
2023-03-26T21:56:42.911Z,2.75
2023-03-26T22:00:08.286Z,5.88
2023-03-26T22:03:13.703Z,4.70
2023-03-26T22:06:31.330Z,3.38
2023-03-26T22:09:36.150Z,4.10
2023-03-26T22:12:38.236Z,3.60
2023-03-26T22:15:39.918Z,3.30
2023-03-26T22:18:43.696Z,3.33
2023-03-26T22:21:45.492Z,6.05
2023-03-26T22:24:47.089Z,3.10
2023-03-26T22:27:49.941Z,3.20
2023-03-26T22:30:52.241Z,3.42
2023-03-26T22:33:54.978Z,3.10
2023-03-26T22:36:56.511Z,3.75
2023-03-26T22:39:58.147Z,3.53
2023-03-26T22:42:59.707Z,3.38
2023-03-26T22:46:01.340Z,4.20
2023-03-26T22:49:03.263Z,2.55
2023-03-26T22:52:04.884Z,5.00
2023-03-26T22:55:07.199Z,5.07
2023-03-26T22:58:09.467Z,4.55
2023-03-26T23:01:21.728Z,2.75
2023-03-26T23:04:31.271Z,2.70
2023-03-26T23:07:34.296Z,2.90
2023-03-26T23:10:39.470Z,3.67
2023-03-26T23:13:42.346Z,3.05
2023-03-26T23:16:45.986Z,2.63
2023-03-26T23:19:53.147Z,3.40
2023-03-26T23:22:54.865Z,3.55
2023-03-26T23:25:59.503Z,2.87
2023-03-26T23:29:02.112Z,2.97
2023-03-26T23:32:03.859Z,3.20
2023-03-26T23:35:27.469Z,2.33
2023-03-26T23:38:43.442Z,3.97
2023-03-26T23:41:46.132Z,1.90
2023-03-26T23:44:47.822Z,2.17
2023-03-26T23:47:49.423Z,3.70
2023-03-26T23:50:53.215Z,3.00
2023-03-26T23:54:05.182Z,3.53
2023-03-26T23:57:07.631Z,3.73
